Time;durP1;ratioP1;P1;durP2;ratioP2;P2;SDS_P1;SDS_P2;PMS_P1;PMS_P2;Temp;Humidity;BMP_temperature;BMP_pressure;BME280_temperature;BME280_humidity;BME280_pressure;Samples;Min_cycle;Max_cycle;Signal;HPM_P1;HPM_P2
2021/04/10 00:00:07;;;;;;;3.92;1.13;;;17.80;42.10;;;;;;4981995;28;20156;-79
2021/04/10 00:02:32;;;;;;;3.50;1.30;;;17.80;42.10;;;;;;4982211;28;20222;-78
2021/04/10 00:04:58;;;;;;;3.55;1.30;;;17.70;42.10;;;;;;4965015;28;20165;-77
2021/04/10 00:07:26;;;;;;;3.80;1.17;;;17.80;42.20;;;;;;4982159;28;20156;-78
2021/04/10 00:09:52;;;;;;;2.33;1.30;;;17.70;42.20;;;;;;4948312;28;20161;-78
2021/04/10 00:12:18;;;;;;;3.90;1.33;;;17.70;42.10;;;;;;4982024;28;20208;-78
2021/04/10 00:14:46;;;;;;;6.03;1.50;;;17.70;42.70;;;;;;4982095;28;20157;-78
2021/04/10 00:17:11;;;;;;;3.78;1.40;;;17.70;42.10;;;;;;4981103;28;20667;-78
2021/04/10 00:19:39;;;;;;;3.25;1.33;;;17.80;42.20;;;;;;4981589;28;20195;-77
2021/04/10 00:22:06;;;;;;;3.10;1.50;;;17.70;42.10;;;;;;4981492;28;20221;-78
2021/04/10 00:24:31;;;;;;;5.15;1.30;;;17.70;42.10;;;;;;4964044;28;20516;-78
2021/04/10 00:27:06;;;;;;;3.28;1.45;;;17.70;42.20;;;;;;4980742;28;20631;-77
2021/04/10 00:29:33;;;;;;;2.83;1.10;;;17.70;42.20;;;;;;4981029;28;20161;-78
2021/04/10 00:32:01;;;;;;;2.70;1.17;;;17.70;42.20;;;;;;4963914;28;20613;-79
2021/04/10 00:34:27;;;;;;;2.83;1.20;;;17.70;42.20;;;;;;4981771;28;20169;-78
2021/04/10 00:36:53;;;;;;;2.67;1.27;;;17.70;42.30;;;;;;4963800;28;20196;-78
2021/04/10 00:39:19;;;;;;;2.40;1.15;;;17.70;42.30;;;;;;4964280;28;20172;-78
2021/04/10 00:41:46;;;;;;;3.13;1.15;;;17.70;42.30;;;;;;4963695;28;20169;-79
2021/04/10 00:44:20;;;;;;;3.22;1.20;;;17.70;42.40;;;;;;4980896;28;20157;-78
2021/04/10 00:46:47;;;;;;;2.67;1.15;;;17.70;42.40;;;;;;4980781;28;20164;-78
2021/04/10 00:49:13;;;;;;;2.53;1.00;;;17.70;42.40;;;;;;4980922;28;20640;-77
2021/04/10 00:51:39;;;;;;;2.40;1.10;;;17.60;42.30;;;;;;4981221;28;20170;-79
2021/04/10 00:54:06;;;;;;;2.50;1.15;;;17.70;42.30;;;;;;4964175;28;20164;-78
2021/04/10 00:56:31;;;;;;;2.13;1.10;;;17.60;42.30;;;;;;4967460;28;20228;-77
2021/04/10 00:58:58;;;;;;;2.30;1.23;;;17.70;42.30;;;;;;4966534;28;20172;-78
2021/04/10 01:01:30;;;;;;;2.95;1.40;;;17.60;42.30;;;;;;4983873;28;20157;-79
2021/04/10 01:04:06;;;;;;;3.10;1.00;;;17.70;43.00;;;;;;4984175;28;20676;-78
2021/04/10 01:06:33;;;;;;;3.83;1.40;;;17.60;42.30;;;;;;4982820;28;20624;-78
2021/04/10 01:09:00;;;;;;;2.35;1.20;;;17.60;42.40;;;;;;4983863;28;20157;-77
2021/04/10 01:11:37;;;;;;;3.97;1.67;;;17.60;42.40;;;;;;4983226;28;20532;-78
2021/04/10 01:14:18;;;;;;;2.35;1.15;;;17.60;42.40;;;;;;4983502;28;20160;-78
2021/04/10 01:16:51;;;;;;;3.72;1.25;;;17.60;42.40;;;;;;4983445;28;20659;-78
2021/04/10 01:19:44;;;;;;;2.80;1.00;;;17.60;42.40;;;;;;4966213;28;20621;-79
2021/04/10 01:22:44;;;;;;;2.05;1.27;;;17.60;42.50;;;;;;4983116;28;20481;-78
2021/04/10 01:25:34;;;;;;;2.90;1.23;;;17.60;42.50;;;;;;4982814;28;20244;-79
2021/04/10 01:28:00;;;;;;;2.15;1.08;;;17.60;42.30;;;;;;4983022;28;20171;-78
2021/04/10 01:30:32;;;;;;;2.60;1.15;;;17.60;42.40;;;;;;4965395;28;20165;-79
2021/04/10 01:33:02;;;;;;;2.00;1.02;;;17.60;42.40;;;;;;4983233;28;20260;-78
2021/04/10 01:35:41;;;;;;;3.08;1.30;;;17.60;42.40;;;;;;4983394;28;20236;-78
2021/04/10 01:38:20;;;;;;;2.72;1.30;;;17.60;42.40;;;;;;4965400;28;20168;-79
2021/04/10 01:40:49;;;;;;;2.17;1.10;;;17.60;42.30;;;;;;4982600;28;20156;-79
2021/04/10 01:43:15;;;;;;;2.70;1.13;;;17.60;42.30;;;;;;4965535;28;20160;-78
2021/04/10 01:45:41;;;;;;;3.17;1.15;;;17.60;42.30;;;;;;4983665;28;20172;-78
2021/04/10 01:48:17;;;;;;;3.10;1.20;;;17.60;42.30;;;;;;4965159;28;20161;-78
2021/04/10 01:50:44;;;;;;;2.67;1.13;;;17.60;42.40;;;;;;4982908;28;20155;-78
2021/04/10 01:53:10;;;;;;;2.42;1.10;;;17.60;42.40;;;;;;4965560;28;20161;-79
2021/04/10 01:55:37;;;;;;;3.53;1.20;;;17.60;42.30;;;;;;4982745;28;20191;-78
2021/04/10 01:58:04;;;;;;;4.28;1.20;;;17.70;42.30;;;;;;4945765;29;20637;-78
2021/04/10 02:00:32;;;;;;;2.72;1.02;;;17.60;42.30;;;;;;4961744;29;20162;-78
2021/04/10 02:03:06;;;;;;;4.05;1.50;;;17.60;42.30;;;;;;4962376;29;20162;-78
2021/04/10 02:05:33;;;;;;;3.05;1.45;;;17.60;42.30;;;;;;4961749;28;20517;-78
2021/04/10 02:07:59;;;;;;;3.63;1.13;;;17.60;42.40;;;;;;4961452;29;20161;-79
2021/04/10 02:10:25;;;;;;;4.03;1.30;;;17.60;42.40;;;;;;4961250;29;20512;-78
2021/04/10 02:12:53;;;;;;;1.70;0.88;;;17.60;42.50;;;;;;4962202;29;20168;-79
2021/04/10 02:15:20;;;;;;;1.50;0.90;;;17.60;42.40;;;;;;4961984;29;20205;-77
2021/04/10 02:17:46;;;;;;;3.03;1.30;;;17.60;42.40;;;;;;4962839;29;20269;-78
2021/04/10 02:20:13;;;;;;;2.30;1.00;;;17.60;42.40;;;;;;4945984;29;20169;-78
2021/04/10 02:22:45;;;;;;;4.85;1.27;;;17.60;42.50;;;;;;4962066;29;20273;-78
2021/04/10 02:25:19;;;;;;;1.80;0.98;;;17.60;42.40;;;;;;4965609;28;20169;-78
2021/04/10 02:27:47;;;;;;;2.13;1.45;;;17.60;42.40;;;;;;4963702;29;20499;-78
2021/04/10 02:30:15;;;;;;;2.72;1.00;;;17.60;43.00;;;;;;4964704;29;20185;-78
2021/04/10 02:32:56;;;;;;;2.53;1.33;;;17.60;42.40;;;;;;4963716;29;20169;-77
2021/04/10 02:35:38;;;;;;;2.90;1.20;;;17.60;42.40;;;;;;4964662;29;20192;-78
2021/04/10 02:38:05;;;;;;;3.47;1.23;;;17.60;42.40;;;;;;4964125;29;20172;-78
2021/04/10 02:40:34;;;;;;;3.13;1.08;;;17.60;42.60;;;;;;4964849;28;20157;-77
2021/04/10 02:43:02;;;;;;;3.65;1.40;;;17.60;42.50;;;;;;4964584;28;20153;-77
2021/04/10 02:45:28;;;;;;;2.33;1.20;;;17.60;42.50;;;;;;4963818;29;20637;-78
2021/04/10 02:48:22;;;;;;;1.85;1.20;;;17.60;42.50;;;;;;4963938;29;20610;-78
2021/04/10 02:50:56;;;;;;;3.00;1.13;;;17.60;42.50;;;;;;4964158;28;20150;-78
2021/04/10 02:53:23;;;;;;;2.58;1.13;;;17.60;42.40;;;;;;4962431;29;20161;-78
2021/04/10 02:55:50;;;;;;;3.35;1.10;;;17.60;42.30;;;;;;4947853;28;20193;-78
2021/04/10 02:58:25;;;;;;;4.25;1.00;;;17.60;42.30;;;;;;4949836;28;20169;-77
2021/04/10 03:00:53;;;;;;;2.95;1.13;;;17.70;42.30;;;;;;4965096;28;20300;-78
2021/04/10 03:03:19;;;;;;;2.40;1.00;;;17.60;42.30;;;;;;4965500;28;20169;-79
2021/04/10 03:05:45;;;;;;;3.30;1.15;;;17.60;42.30;;;;;;4965349;28;20153;-79
2021/04/10 03:08:16;;;;;;;3.05;1.13;;;17.60;42.40;;;;;;4982265;28;20161;-78
2021/04/10 03:10:53;;;;;;;2.13;1.20;;;17.60;42.30;;;;;;4982306;28;20156;-77
2021/04/10 03:13:19;;;;;;;2.60;1.20;;;17.60;42.40;;;;;;4965603;28;20524;-79
2021/04/10 03:15:49;;;;;;;3.15;1.40;;;17.60;42.40;;;;;;4965335;28;20196;-78
2021/04/10 03:18:16;;;;;;;2.15;1.23;;;17.60;42.40;;;;;;4982569;28;20153;-78
2021/04/10 03:20:49;;;;;;;3.45;1.20;;;17.60;42.30;;;;;;4965826;28;20157;-78
2021/04/10 03:23:15;;;;;;;1.88;0.98;;;17.60;42.40;;;;;;4965765;28;20209;-78
2021/04/10 03:25:43;;;;;;;2.28;1.00;;;17.60;42.50;;;;;;4965366;28;20157;-78
2021/04/10 03:28:10;;;;;;;2.15;1.00;;;17.60;42.50;;;;;;4981883;28;20153;-77
2021/04/10 03:30:37;;;;;;;1.88;1.02;;;17.60;42.40;;;;;;4964833;28;20521;-78
2021/04/10 03:33:04;;;;;;;2.80;1.23;;;17.60;42.40;;;;;;4964882;28;20161;-78
2021/04/10 03:35:32;;;;;;;4.00;1.45;;;17.50;42.40;;;;;;4982313;28;20196;-78
2021/04/10 03:38:00;;;;;;;4.93;1.00;;;17.60;42.40;;;;;;4982127;28;20192;-77
2021/04/10 03:40:27;;;;;;;3.60;1.20;;;17.60;42.40;;;;;;4982082;28;20157;-77
2021/04/10 03:42:54;;;;;;;2.78;1.00;;;17.60;42.50;;;;;;4982387;28;20156;-79
2021/04/10 03:45:21;;;;;;;1.95;1.20;;;17.60;42.40;;;;;;4982510;28;20168;-78
2021/04/10 03:47:49;;;;;;;5.40;1.20;;;17.60;42.40;;;;;;4982151;28;20204;-78
2021/04/10 03:50:15;;;;;;;2.88;1.10;;;17.60;42.50;;;;;;4948587;28;20595;-78
2021/04/10 03:52:50;;;;;;;1.95;1.20;;;17.60;42.40;;;;;;4981545;28;20292;-78
2021/04/10 03:55:17;;;;;;;2.35;1.05;;;17.60;42.40;;;;;;4982428;28;20206;-78
2021/04/10 03:57:43;;;;;;;2.15;1.40;;;17.50;42.50;;;;;;4981418;28;20228;-79
2021/04/10 04:00:12;;;;;;;1.83;1.20;;;17.60;42.40;;;;;;4965338;28;20169;-77
2021/04/10 04:02:39;;;;;;;1.67;0.90;;;17.60;42.50;;;;;;4964029;28;20193;-79
2021/04/10 04:05:07;;;;;;;3.58;1.40;;;17.60;42.50;;;;;;4981581;28;20628;-79
2021/04/10 04:07:34;;;;;;;3.10;0.90;;;17.60;42.50;;;;;;4964194;28;20211;-79
2021/04/10 04:10:01;;;;;;;3.63;0.98;;;17.60;42.50;;;;;;4982397;28;20169;-79
2021/04/10 04:12:29;;;;;;;2.75;1.30;;;17.60;42.40;;;;;;4981793;28;20156;-78
2021/04/10 04:14:56;;;;;;;1.60;0.85;;;17.60;42.40;;;;;;4964852;28;20166;-78
2021/04/10 04:17:22;;;;;;;2.92;1.33;;;17.60;42.30;;;;;;4982322;28;20292;-78
2021/04/10 04:19:48;;;;;;;2.25;1.13;;;17.60;42.40;;;;;;4981757;28;20616;-78
2021/04/10 04:22:15;;;;;;;2.75;1.00;;;17.60;42.40;;;;;;4981702;28;20208;-78
2021/04/10 04:24:41;;;;;;;2.60;1.20;;;17.60;42.40;;;;;;4981672;28;20180;-78
2021/04/10 04:27:07;;;;;;;1.77;1.02;;;17.60;42.40;;;;;;4981685;28;20168;-78
2021/04/10 04:29:33;;;;;;;1.75;0.98;;;17.60;42.40;;;;;;4966490;28;20161;-77
2021/04/10 04:32:00;;;;;;;4.43;1.23;;;17.60;42.40;;;;;;4985201;28;20208;-78
2021/04/10 04:34:26;;;;;;;2.08;0.80;;;17.60;42.40;;;;;;4985161;28;20600;-78
2021/04/10 04:37:01;;;;;;;2.55;0.90;;;17.60;42.50;;;;;;4985346;28;20192;-79
2021/04/10 04:39:28;;;;;;;1.67;0.85;;;17.50;42.40;;;;;;4985313;28;20188;-77
2021/04/10 04:41:54;;;;;;;2.28;0.95;;;17.50;42.40;;;;;;4985293;28;20157;-77
2021/04/10 04:44:29;;;;;;;3.13;1.30;;;17.50;42.50;;;;;;4967064;28;20169;-77
2021/04/10 04:46:56;;;;;;;1.85;1.00;;;17.50;42.60;;;;;;4967828;28;20167;-77
2021/04/10 04:49:22;;;;;;;1.50;0.95;;;17.50;42.60;;;;;;4968665;28;20589;-77
2021/04/10 04:51:51;;;;;;;2.90;0.80;;;17.50;42.60;;;;;;4966880;28;20165;-79
2021/04/10 04:54:17;;;;;;;3.63;1.00;;;17.50;42.60;;;;;;4984486;28;20189;-78
2021/04/10 04:56:43;;;;;;;2.85;1.10;;;17.50;42.60;;;;;;4984446;28;20245;-77
2021/04/10 04:59:09;;;;;;;2.70;1.20;;;17.50;42.70;;;;;;4985474;28;20322;-78
2021/04/10 05:01:44;;;;;;;2.40;1.05;;;17.50;42.60;;;;;;4967613;28;20609;-78
2021/04/10 05:04:11;;;;;;;2.75;0.95;;;17.50;42.50;;;;;;4984618;28;20164;-78
2021/04/10 05:06:39;;;;;;;1.67;1.00;;;17.50;42.50;;;;;;4984542;28;20196;-78
2021/04/10 05:09:07;;;;;;;3.45;1.15;;;17.50;42.60;;;;;;4967389;28;20219;-77
2021/04/10 05:11:34;;;;;;;3.10;1.25;;;17.50;42.50;;;;;;4985681;28;20207;-77
2021/04/10 05:14:00;;;;;;;1.48;1.13;;;17.60;42.50;;;;;;4969241;28;20172;-77
2021/04/10 05:16:32;;;;;;;2.83;1.10;;;17.50;42.40;;;;;;4989729;28;20184;-77
2021/04/10 05:19:07;;;;;;;1.42;1.10;;;17.60;42.30;;;;;;4989847;28;20184;-77
2021/04/10 05:21:41;;;;;;;2.83;1.20;;;17.60;42.30;;;;;;4989277;28;20216;-77
2021/04/10 05:24:09;;;;;;;2.42;1.30;;;17.60;42.30;;;;;;4988866;28;20156;-77
2021/04/10 05:26:37;;;;;;;3.20;1.08;;;17.50;42.50;;;;;;4989966;28;20180;-77
2021/04/10 05:29:04;;;;;;;3.13;1.00;;;17.50;42.60;;;;;;4989354;28;20153;-77
2021/04/10 05:31:31;;;;;;;2.85;1.02;;;17.50;42.60;;;;;;4989909;28;20193;-77
2021/04/10 05:33:58;;;;;;;1.55;0.90;;;17.60;42.60;;;;;;4989317;28;20157;-77
2021/04/10 05:36:24;;;;;;;2.20;1.10;;;17.60;42.70;;;;;;4987789;28;20209;-77
2021/04/10 05:38:51;;;;;;;2.03;1.10;;;17.50;42.70;;;;;;4989033;28;20242;-77
2021/04/10 05:41:20;;;;;;;3.75;1.17;;;17.50;42.70;;;;;;4971212;28;20161;-78
2021/04/10 05:43:47;;;;;;;2.25;1.00;;;17.60;43.00;;;;;;4988791;28;20160;-77
2021/04/10 05:46:15;;;;;;;2.97;1.02;;;17.50;42.70;;;;;;4971813;28;20236;-77
2021/04/10 05:48:40;;;;;;;3.20;1.27;;;17.60;42.70;;;;;;4972488;28;20212;-77
2021/04/10 05:51:08;;;;;;;2.33;1.20;;;17.60;42.90;;;;;;4971477;28;20161;-77
2021/04/10 05:53:34;;;;;;;3.00;1.02;;;17.60;42.70;;;;;;4972328;28;20168;-77
2021/04/10 05:56:00;;;;;;;1.27;0.90;;;17.60;42.60;;;;;;4988473;28;20240;-78
2021/04/10 05:58:26;;;;;;;2.47;0.90;;;17.60;42.70;;;;;;4986129;28;20600;-77
2021/04/10 06:01:01;;;;;;;2.30;1.00;;;17.60;42.90;;;;;;4987588;28;20157;-77
2021/04/10 06:03:36;;;;;;;2.42;1.05;;;17.70;42.30;;;;;;4987830;28;20243;-77
2021/04/10 06:06:11;;;;;;;2.30;1.30;;;17.60;42.30;;;;;;4987659;28;20172;-77
2021/04/10 06:08:39;;;;;;;1.73;1.13;;;17.70;42.30;;;;;;4987871;28;20297;-77
2021/04/10 06:11:06;;;;;;;2.33;1.30;;;17.70;42.30;;;;;;4970858;28;20163;-77
2021/04/10 06:13:40;;;;;;;1.67;0.95;;;17.70;42.30;;;;;;4984474;28;20159;-77
2021/04/10 06:16:08;;;;;;;2.58;0.90;;;17.70;42.20;;;;;;4983438;28;20200;-76
2021/04/10 06:18:35;;;;;;;2.15;1.00;;;17.80;42.10;;;;;;4983473;28;20521;-79
2021/04/10 06:21:00;;;;;;;4.57;1.27;;;17.80;42.00;;;;;;4984047;28;20165;-76
2021/04/10 06:23:35;;;;;;;1.13;0.80;;;17.80;42.00;;;;;;4950224;28;20172;-77
2021/04/10 06:26:02;;;;;;;1.67;1.10;;;17.90;42.10;;;;;;4982448;28;20228;-77
2021/04/10 06:28:29;;;;;;;3.17;1.58;;;17.90;42.10;;;;;;4982696;28;20232;-76
2021/04/10 06:30:55;;;;;;;2.45;0.88;;;17.80;42.20;;;;;;4982290;28;20153;-77
2021/04/10 06:33:24;;;;;;;1.77;1.15;;;17.90;42.00;;;;;;4964651;28;20203;-77
2021/04/10 06:35:50;;;;;;;3.75;0.90;;;17.90;41.90;;;;;;4945638;28;20279;-79
2021/04/10 06:38:17;;;;;;;1.55;0.95;;;17.90;41.90;;;;;;4944956;28;20169;-78
2021/04/10 06:40:44;;;;;;;2.58;1.02;;;17.90;42.00;;;;;;4963902;28;20208;-78
2021/04/10 06:43:12;;;;;;;2.63;0.90;;;17.90;42.00;;;;;;4985062;28;20175;-78
2021/04/10 06:45:39;;;;;;;2.05;1.10;;;17.90;42.00;;;;;;4984101;28;20165;-78
2021/04/10 06:48:05;;;;;;;2.75;1.02;;;17.90;41.80;;;;;;4968180;28;20180;-77
2021/04/10 06:50:31;;;;;;;2.78;1.63;;;18.00;41.70;;;;;;4951939;28;20649;-76
2021/04/10 06:52:57;;;;;;;2.50;1.15;;;17.90;41.80;;;;;;4936743;28;20169;-76
2021/04/10 06:55:24;;;;;;;2.35;1.13;;;18.00;41.70;;;;;;4968364;28;20727;-76
2021/04/10 06:58:01;;;;;;;2.70;1.00;;;17.90;41.80;;;;;;4967972;28;20244;-76
2021/04/10 07:00:29;;;;;;;2.47;0.98;;;17.90;41.80;;;;;;4970609;28;20180;-76
2021/04/10 07:03:00;;;;;;;2.90;1.00;;;17.90;41.60;;;;;;4970048;28;20225;-76
2021/04/10 07:05:28;;;;;;;2.10;0.90;;;17.90;41.70;;;;;;4953607;28;20180;-76
2021/04/10 07:07:56;;;;;;;3.60;1.00;;;17.90;41.90;;;;;;4938238;28;20181;-77
2021/04/10 07:10:21;;;;;;;2.53;1.10;;;17.90;41.80;;;;;;4952462;28;20165;-76
2021/04/10 07:12:48;;;;;;;4.10;1.30;;;17.90;41.70;;;;;;4986386;28;20219;-77
2021/04/10 07:15:16;;;;;;;1.95;1.00;;;18.00;41.60;;;;;;4987097;28;20219;-77
2021/04/10 07:17:48;;;;;;;2.80;1.33;;;18.10;41.40;;;;;;4987789;28;20161;-76
2021/04/10 07:20:23;;;;;;;2.08;0.98;;;18.00;41.50;;;;;;4987891;28;20231;-76
2021/04/10 07:23:04;;;;;;;5.72;1.13;;;18.10;41.50;;;;;;4987464;28;20216;-77
2021/04/10 07:25:43;;;;;;;2.47;1.00;;;18.10;41.60;;;;;;4987098;28;20192;-77
2021/04/10 07:28:28;;;;;;;2.95;0.95;;;18.00;41.60;;;;;;4987357;28;20168;-76
2021/04/10 07:30:58;;;;;;;2.50;1.20;;;18.10;41.70;;;;;;4970638;28;20160;-76
2021/04/10 07:33:35;;;;;;;2.42;1.17;;;18.00;41.70;;;;;;4970753;28;20160;-76
2021/04/10 07:36:03;;;;;;;5.88;1.20;;;18.00;41.80;;;;;;4970027;28;20192;-76
2021/04/10 07:38:31;;;;;;;2.42;1.27;;;18.00;41.70;;;;;;4969824;28;20212;-77
2021/04/10 07:40:59;;;;;;;3.63;1.10;;;18.10;41.60;;;;;;4970713;28;20164;-76
2021/04/10 07:43:45;;;;;;;3.95;1.00;;;18.10;41.30;;;;;;4987942;28;20172;-76
2021/04/10 07:46:21;;;;;;;3.03;1.08;;;18.10;41.60;;;;;;4987535;28;20191;-76
2021/04/10 07:49:05;;;;;;;5.25;1.00;;;18.10;41.70;;;;;;4987289;28;20164;-76
2021/04/10 07:51:51;;;;;;;3.40;0.93;;;18.10;41.70;;;;;;4987051;28;20168;-76
2021/04/10 07:54:24;;;;;;;5.07;1.20;;;18.10;41.70;;;;;;4987240;28;20161;-76
2021/04/10 07:57:03;;;;;;;4.85;1.17;;;18.20;41.70;;;;;;4985305;28;20707;-76
2021/04/10 07:59:31;;;;;;;8.68;1.50;;;18.00;42.00;;;;;;4967754;28;20188;-77
2021/04/10 08:02:13;;;;;;;5.03;1.23;;;18.10;41.90;;;;;;4983233;28;20181;-77
2021/04/10 08:04:41;;;;;;;4.30;1.20;;;18.10;41.70;;;;;;4987579;28;20157;-78
2021/04/10 08:07:11;;;;;;;4.32;1.08;;;18.10;41.60;;;;;;4987304;28;20271;-77
2021/04/10 08:09:39;;;;;;;10.13;1.20;;;18.00;41.80;;;;;;4988490;28;20208;-79
2021/04/10 08:12:09;;;;;;;6.45;1.25;;;18.00;41.80;;;;;;4970841;28;20524;-77
2021/04/10 08:14:46;;;;;;;8.80;1.40;;;17.90;41.90;;;;;;4989676;28;20284;-77
2021/04/10 08:17:31;;;;;;;7.10;1.25;;;17.90;41.90;;;;;;4973230;28;20167;-78
2021/04/10 08:20:17;;;;;;;7.40;1.27;;;18.00;41.90;;;;;;4989953;28;20156;-78
2021/04/10 08:22:44;;;;;;;6.55;1.17;;;18.00;41.80;;;;;;4990187;28;20228;-77
2021/04/10 08:25:12;;;;;;;6.38;1.30;;;18.00;42.00;;;;;;4972813;28;20173;-77
2021/04/10 08:27:42;;;;;;;8.50;1.33;;;18.00;41.70;;;;;;4990245;28;20157;-77
2021/04/10 08:30:11;;;;;;;10.48;1.45;;;18.00;41.70;;;;;;4972735;28;20160;-77
2021/04/10 08:32:38;;;;;;;13.05;1.75;;;18.00;41.70;;;;;;4989995;28;20279;-79
2021/04/10 08:35:06;;;;;;;6.25;1.30;;;18.00;41.60;;;;;;4973038;28;20167;-77
2021/04/10 08:37:41;;;;;;;12.13;1.40;;;18.10;42.00;;;;;;4990162;28;20189;-77
2021/04/10 08:40:09;;;;;;;8.55;1.20;;;18.10;41.90;;;;;;4990147;28;20161;-77
2021/04/10 08:42:38;;;;;;;14.82;1.58;;;18.10;41.60;;;;;;4973366;28;20195;-77
2021/04/10 08:45:06;;;;;;;9.73;1.25;;;18.10;41.60;;;;;;4972129;28;20244;-78
2021/04/10 08:47:34;;;;;;;26.13;1.80;;;18.10;41.60;;;;;;4989415;28;20646;-78
2021/04/10 08:50:06;;;;;;;21.10;1.70;;;18.10;41.60;;;;;;4989689;28;20229;-78
2021/04/10 08:52:34;;;;;;;13.57;1.35;;;18.20;41.70;;;;;;4956343;28;20176;-78
2021/04/10 08:55:02;;;;;;;11.20;1.98;;;18.10;41.80;;;;;;4971490;28;20161;-78
2021/04/10 08:57:39;;;;;;;15.15;1.50;;;18.10;41.90;;;;;;4989005;28;20276;-78
2021/04/10 09:00:37;;;;;;;16.83;2.03;;;18.20;41.90;;;;;;4972008;28;20630;-79
2021/04/10 09:03:42;;;;;;;8.68;1.42;;;18.20;42.40;;;;;;4972329;28;20180;-79
2021/04/10 09:06:30;;;;;;;12.48;1.50;;;18.20;41.80;;;;;;4989010;28;20199;-78
2021/04/10 09:09:10;;;;;;;23.77;1.92;;;18.20;42.00;;;;;;4989528;28;20172;-79
2021/04/10 09:12:24;;;;;;;17.30;1.77;;;18.20;42.80;;;;;;4972778;28;20610;-77
2021/04/10 09:15:11;;;;;;;11.27;1.45;;;18.10;42.20;;;;;;4982256;28;20310;-78
2021/04/10 09:18:02;;;;;;;20.30;2.53;;;18.20;41.70;;;;;;4971861;28;20173;-77
2021/04/10 09:20:45;;;;;;;29.10;2.33;;;18.20;42.20;;;;;;4989389;28;20168;-77
2021/04/10 09:23:49;;;;;;;19.95;1.90;;;18.10;41.90;;;;;;4971652;28;20172;-77
2021/04/10 09:26:35;;;;;;;59.95;3.92;;;18.10;42.30;;;;;;4989475;28;20161;-78
2021/04/10 09:29:33;;;;;;;77.85;5.22;;;18.10;42.50;;;;;;4970077;28;20184;-78
2021/04/10 09:32:57;;;;;;;54.40;4.05;;;18.10;43.00;;;;;;4987380;28;20165;-78
2021/04/10 09:35:44;;;;;;;71.65;4.65;;;18.10;42.60;;;;;;4987744;28;20197;-77
2021/04/10 09:38:33;;;;;;;57.13;4.28;;;18.00;42.80;;;;;;4967178;28;20183;-78
2021/04/10 09:41:18;;;;;;;42.78;3.13;;;18.00;42.50;;;;;;4986108;28;20161;-78
2021/04/10 09:44:27;;;;;;;33.50;2.50;;;18.00;42.90;;;;;;4969674;28;20208;-79
2021/04/10 09:47:16;;;;;;;57.95;3.83;;;18.10;42.30;;;;;;4969287;28;20203;-77
2021/04/10 09:49:58;;;;;;;43.03;3.15;;;18.10;42.80;;;;;;4987655;28;20236;-77
2021/04/10 09:52:24;;;;;;;62.40;4.18;;;18.00;42.70;;;;;;4953018;28;20670;-77
2021/04/10 09:54:51;;;;;;;45.03;3.10;;;18.10;42.70;;;;;;4969022;28;20188;-78
2021/04/10 09:57:17;;;;;;;55.42;3.30;;;18.20;42.00;;;;;;4950303;29;20283;-78
2021/04/10 09:59:52;;;;;;;37.63;2.72;;;18.20;43.20;;;;;;4934920;29;20177;-76
2021/04/10 10:02:33;;;;;;;46.20;3.30;;;18.20;42.60;;;;;;4967383;29;20161;-77
2021/04/10 10:05:01;;;;;;;47.22;3.05;;;18.20;42.80;;;;;;4951202;29;20177;-76
2021/04/10 10:07:35;;;;;;;35.50;3.20;;;18.20;43.20;;;;;;4951179;29;20201;-76
2021/04/10 10:10:17;;;;;;;36.17;3.30;;;18.20;43.00;;;;;;4967821;29;20157;-76
2021/04/10 10:12:44;;;;;;;30.02;3.15;;;18.20;42.70;;;;;;4950816;29;20189;-76
2021/04/10 10:15:29;;;;;;;33.13;2.80;;;18.30;42.20;;;;;;4965728;29;20157;-76
2021/04/10 10:17:54;;;;;;;43.80;3.30;;;18.30;42.80;;;;;;4950662;29;20193;-76
2021/04/10 10:20:29;;;;;;;44.70;3.08;;;18.20;42.80;;;;;;4934540;29;20170;-76
2021/04/10 10:22:56;;;;;;;47.53;3.35;;;18.30;43.00;;;;;;4951285;29;20231;-75
2021/04/10 10:25:31;;;;;;;34.55;2.60;;;18.30;42.80;;;;;;4966903;29;20162;-75
2021/04/10 10:27:59;;;;;;;31.35;3.03;;;18.30;42.60;;;;;;4951057;29;20172;-76
2021/04/10 10:30:26;;;;;;;38.22;3.03;;;18.30;42.80;;;;;;4951432;29;20202;-77
2021/04/10 10:32:52;;;;;;;26.15;2.30;;;18.20;43.20;;;;;;4967888;29;20158;-76
2021/04/10 10:35:19;;;;;;;32.60;2.90;;;18.30;42.90;;;;;;4949785;29;20208;-76
2021/04/10 10:37:50;;;;;;;25.63;3.33;;;18.30;42.90;;;;;;4966077;29;20181;-75
2021/04/10 10:40:26;;;;;;;27.05;3.13;;;18.30;43.10;;;;;;4950471;29;20162;-76
2021/04/10 10:43:09;;;;;;;44.85;3.33;;;18.20;43.30;;;;;;4968412;28;20153;-76
2021/04/10 10:46:02;;;;;;;31.52;3.15;;;18.20;42.80;;;;;;4966057;29;20161;-76
2021/04/10 10:48:31;;;;;;;33.90;2.78;;;18.30;42.50;;;;;;4966387;29;20232;-76
2021/04/10 10:51:00;;;;;;;41.63;3.08;;;18.30;42.70;;;;;;4967773;28;20162;-76
2021/04/10 10:53:37;;;;;;;50.08;4.78;;;18.30;42.80;;;;;;4965907;29;20232;-76
2021/04/10 10:56:04;;;;;;;35.97;3.05;;;18.30;43.10;;;;;;4966201;28;20292;-75
2021/04/10 10:58:40;;;;;;;30.27;3.30;;;18.30;43.20;;;;;;4953955;28;20607;-76
2021/04/10 11:01:31;;;;;;;24.67;2.47;;;18.30;43.00;;;;;;4953801;28;20232;-75
2021/04/10 11:04:08;;;;;;;36.85;2.67;;;18.30;43.00;;;;;;4954999;28;20180;-75
2021/04/10 11:06:42;;;;;;;37.80;2.95;;;18.30;42.70;;;;;;4937867;28;20168;-76
2021/04/10 11:09:16;;;;;;;35.83;2.67;;;18.40;42.80;;;;;;4938975;28;20170;-76
2021/04/10 11:11:44;;;;;;;28.38;2.50;;;18.40;43.20;;;;;;4969713;28;20264;-76
2021/04/10 11:14:22;;;;;;;32.15;2.83;;;18.30;43.20;;;;;;4969900;28;20267;-76
2021/04/10 11:16:50;;;;;;;42.20;2.95;;;18.30;42.80;;;;;;4987215;28;20216;-75
2021/04/10 11:19:43;;;;;;;35.88;2.88;;;18.40;42.60;;;;;;4969728;28;20162;-76
2021/04/10 11:22:16;;;;;;;31.67;3.85;;;18.50;42.90;;;;;;4969673;28;20224;-75
2021/04/10 11:24:52;;;;;;;27.88;2.80;;;18.50;42.70;;;;;;4969265;28;20160;-76
2021/04/10 11:27:21;;;;;;;33.63;2.92;;;18.50;42.70;;;;;;4951776;28;20592;-76
2021/04/10 11:29:51;;;;;;;30.52;2.70;;;18.50;42.60;;;;;;4953571;28;20607;-76
2021/04/10 11:32:24;;;;;;;33.42;2.58;;;18.50;42.60;;;;;;4987174;28;20191;-76
2021/04/10 11:34:54;;;;;;;29.33;3.10;;;18.50;43.00;;;;;;4953624;28;20199;-76
2021/04/10 11:37:27;;;;;;;36.85;2.80;;;18.50;43.10;;;;;;4969474;28;20616;-76
2021/04/10 11:40:01;;;;;;;45.00;3.58;;;18.40;43.20;;;;;;4969351;28;20236;-76
2021/04/10 11:42:35;;;;;;;38.10;3.63;;;18.50;42.90;;;;;;4969765;28;20171;-76
2021/04/10 11:45:11;;;;;;;31.55;2.80;;;18.60;43.10;;;;;;4969716;28;20296;-76
2021/04/10 11:48:31;;;;;;;25.40;3.72;;;18.60;42.70;;;;;;4986971;28;20195;-76
2021/04/10 11:51:24;;;;;;;33.00;3.15;;;18.60;43.00;;;;;;4985975;28;20181;-76
2021/04/10 11:54:17;;;;;;;25.30;3.35;;;18.60;42.90;;;;;;4953198;28;20240;-76
2021/04/10 11:56:44;;;;;;;17.50;1.63;;;18.50;43.30;;;;;;4963984;29;20289;-76
2021/04/10 11:59:12;;;;;;;27.00;2.65;;;18.50;43.20;;;;;;4934089;29;20188;-77
2021/04/10 12:01:54;;;;;;;28.70;2.97;;;18.50;43.20;;;;;;4949630;29;20165;-77
2021/04/10 12:04:37;;;;;;;28.77;2.58;;;18.50;43.20;;;;;;4964398;29;20265;-76
2021/04/10 12:07:11;;;;;;;22.25;2.55;;;18.50;42.80;;;;;;4949726;29;20181;-76
2021/04/10 12:09:38;;;;;;;31.98;2.40;;;18.50;42.60;;;;;;4965050;29;20158;-77
2021/04/10 12:12:14;;;;;;;24.75;2.50;;;18.60;42.90;;;;;;4947228;29;20165;-76
2021/04/10 12:14:42;;;;;;;20.73;2.17;;;18.50;42.60;;;;;;4949643;29;20252;-77
2021/04/10 12:17:14;;;;;;;24.33;2.28;;;18.60;42.40;;;;;;4949663;29;20216;-77
2021/04/10 12:19:41;;;;;;;28.05;2.42;;;18.60;42.50;;;;;;4949539;29;20168;-77
2021/04/10 12:22:10;;;;;;;22.83;2.72;;;18.60;42.50;;;;;;4966639;29;20252;-77
2021/04/10 12:24:38;;;;;;;30.33;2.65;;;18.60;43.00;;;;;;4966769;29;20161;-76
2021/04/10 12:27:06;;;;;;;16.85;2.05;;;18.60;42.70;;;;;;4966594;29;20197;-76
2021/04/10 12:29:40;;;;;;;18.60;2.47;;;18.60;42.80;;;;;;4966364;28;20165;-76
2021/04/10 12:32:09;;;;;;;22.23;2.63;;;18.60;42.70;;;;;;4966947;29;20180;-77
2021/04/10 12:34:35;;;;;;;22.15;2.30;;;18.70;42.80;;;;;;4965714;29;20186;-76
2021/04/10 12:37:04;;;;;;;24.42;2.20;;;18.70;42.80;;;;;;4966537;29;20208;-76
2021/04/10 12:39:41;;;;;;;21.30;2.53;;;18.70;42.80;;;;;;4966461;29;20158;-76
2021/04/10 12:42:15;;;;;;;23.83;2.13;;;18.60;42.80;;;;;;4967413;28;20185;-76
2021/04/10 12:44:46;;;;;;;17.73;2.65;;;18.60;42.60;;;;;;4967780;29;20525;-76
2021/04/10 12:47:27;;;;;;;19.08;2.40;;;18.60;43.10;;;;;;4966964;28;20579;-76
2021/04/10 12:50:03;;;;;;;17.40;2.55;;;18.60;43.40;;;;;;4968297;28;20162;-76
2021/04/10 12:52:36;;;;;;;17.33;2.25;;;18.70;43.30;;;;;;4970641;28;20171;-76
2021/04/10 12:55:05;;;;;;;21.38;2.38;;;18.60;43.20;;;;;;4970639;28;20153;-76
2021/04/10 12:57:39;;;;;;;22.63;2.38;;;18.70;43.00;;;;;;4982172;28;20228;-76
2021/04/10 13:00:25;;;;;;;22.30;2.50;;;18.70;43.00;;;;;;4956098;28;20167;-76
2021/04/10 13:02:54;;;;;;;20.85;2.38;;;18.70;42.90;;;;;;4986659;28;20172;-76
2021/04/10 13:05:25;;;;;;;12.25;1.83;;;18.70;43.00;;;;;;4971580;28;20161;-76
2021/04/10 13:07:57;;;;;;;15.77;2.20;;;18.70;42.70;;;;;;4988294;28;20232;-76